sensor_id;sensor_type;location;lat;lon;timestamp;P1;durP1;ratioP1;P2;durP2;ratioP2
15706;SDS011;7953;54.302;10.128;2024-03-07T00:00:12;18.87;;;12.20;;
15706;SDS011;7953;54.302;10.128;2024-03-07T00:02:43;24.20;;;12.83;;
15706;SDS011;7953;54.302;10.128;2024-03-07T00:05:12;22.70;;;12.97;;
15706;SDS011;7953;54.302;10.128;2024-03-07T00:07:40;18.93;;;12.67;;
15706;SDS011;7953;54.302;10.128;2024-03-07T00:10:08;24.13;;;13.13;;
15706;SDS011;7953;54.302;10.128;2024-03-07T00:12:36;18.83;;;13.17;;
15706;SDS011;7953;54.302;10.128;2024-03-07T00:15:06;23.73;;;12.23;;
15706;SDS011;7953;54.302;10.128;2024-03-07T00:17:33;23.73;;;13.17;;
15706;SDS011;7953;54.302;10.128;2024-03-07T00:20:00;20.23;;;13.30;;
15706;SDS011;7953;54.302;10.128;2024-03-07T00:22:29;18.47;;;12.53;;
15706;SDS011;7953;54.302;10.128;2024-03-07T00:24:56;20.50;;;11.53;;
15706;SDS011;7953;54.302;10.128;2024-03-07T00:27:25;19.53;;;12.73;;
15706;SDS011;7953;54.302;10.128;2024-03-07T00:29:52;17.57;;;12.80;;
15706;SDS011;7953;54.302;10.128;2024-03-07T00:32:19;17.23;;;11.70;;
15706;SDS011;7953;54.302;10.128;2024-03-07T00:34:47;21.90;;;13.27;;
15706;SDS011;7953;54.302;10.128;2024-03-07T00:37:14;17.80;;;11.90;;
15706;SDS011;7953;54.302;10.128;2024-03-07T00:39:41;18.57;;;12.83;;
15706;SDS011;7953;54.302;10.128;2024-03-07T00:42:08;22.27;;;12.83;;
15706;SDS011;7953;54.302;10.128;2024-03-07T00:44:36;18.47;;;11.87;;
15706;SDS011;7953;54.302;10.128;2024-03-07T00:47:03;18.77;;;11.30;;
15706;SDS011;7953;54.302;10.128;2024-03-07T00:49:30;18.47;;;13.10;;
15706;SDS011;7953;54.302;10.128;2024-03-07T00:51:57;18.40;;;13.37;;
15706;SDS011;7953;54.302;10.128;2024-03-07T00:54:24;21.93;;;13.47;;
15706;SDS011;7953;54.302;10.128;2024-03-07T00:56:51;20.50;;;13.03;;
15706;SDS011;7953;54.302;10.128;2024-03-07T00:59:19;19.23;;;13.50;;
15706;SDS011;7953;54.302;10.128;2024-03-07T01:01:47;19.00;;;13.57;;
15706;SDS011;7953;54.302;10.128;2024-03-07T01:04:14;21.53;;;12.60;;
15706;SDS011;7953;54.302;10.128;2024-03-07T01:06:41;24.43;;;12.60;;
15706;SDS011;7953;54.302;10.128;2024-03-07T01:09:08;17.03;;;12.53;;
15706;SDS011;7953;54.302;10.128;2024-03-07T01:11:39;17.47;;;12.97;;
15706;SDS011;7953;54.302;10.128;2024-03-07T01:14:06;19.20;;;12.23;;
15706;SDS011;7953;54.302;10.128;2024-03-07T01:16:33;20.63;;;13.10;;
15706;SDS011;7953;54.302;10.128;2024-03-07T01:19:02;18.50;;;12.07;;
15706;SDS011;7953;54.302;10.128;2024-03-07T01:21:31;19.80;;;12.77;;
15706;SDS011;7953;54.302;10.128;2024-03-07T01:23:58;17.33;;;11.47;;
15706;SDS011;7953;54.302;10.128;2024-03-07T01:26:25;22.80;;;12.60;;
15706;SDS011;7953;54.302;10.128;2024-03-07T01:28:52;18.30;;;11.83;;
15706;SDS011;7953;54.302;10.128;2024-03-07T01:31:20;16.83;;;11.33;;
15706;SDS011;7953;54.302;10.128;2024-03-07T01:33:47;19.10;;;11.53;;
15706;SDS011;7953;54.302;10.128;2024-03-07T01:36:15;17.53;;;11.77;;
15706;SDS011;7953;54.302;10.128;2024-03-07T01:38:42;19.20;;;11.67;;
15706;SDS011;7953;54.302;10.128;2024-03-07T01:41:09;19.33;;;11.90;;
15706;SDS011;7953;54.302;10.128;2024-03-07T01:43:36;27.57;;;11.97;;
15706;SDS011;7953;54.302;10.128;2024-03-07T01:46:03;18.80;;;11.77;;
15706;SDS011;7953;54.302;10.128;2024-03-07T01:48:31;15.27;;;10.53;;
15706;SDS011;7953;54.302;10.128;2024-03-07T01:50:58;29.10;;;14.30;;
15706;SDS011;7953;54.302;10.128;2024-03-07T01:53:30;16.37;;;11.50;;
15706;SDS011;7953;54.302;10.128;2024-03-07T01:55:57;16.17;;;10.63;;
15706;SDS011;7953;54.302;10.128;2024-03-07T01:58:25;16.03;;;10.83;;
15706;SDS011;7953;54.302;10.128;2024-03-07T02:00:52;13.87;;;10.73;;
15706;SDS011;7953;54.302;10.128;2024-03-07T02:03:19;19.07;;;11.27;;
15706;SDS011;7953;54.302;10.128;2024-03-07T02:05:46;17.77;;;11.07;;
15706;SDS011;7953;54.302;10.128;2024-03-07T02:08:12;15.57;;;10.57;;
15706;SDS011;7953;54.302;10.128;2024-03-07T02:10:41;14.50;;;10.80;;
15706;SDS011;7953;54.302;10.128;2024-03-07T02:13:08;14.03;;;10.30;;
15706;SDS011;7953;54.302;10.128;2024-03-07T02:15:35;14.93;;;11.30;;
15706;SDS011;7953;54.302;10.128;2024-03-07T02:18:01;12.83;;;10.03;;
15706;SDS011;7953;54.302;10.128;2024-03-07T02:20:28;15.20;;;9.33;;
15706;SDS011;7953;54.302;10.128;2024-03-07T02:22:57;12.83;;;8.63;;
15706;SDS011;7953;54.302;10.128;2024-03-07T02:25:23;13.73;;;9.37;;
15706;SDS011;7953;54.302;10.128;2024-03-07T02:27:50;13.07;;;8.97;;
15706;SDS011;7953;54.302;10.128;2024-03-07T02:30:17;16.73;;;9.30;;
15706;SDS011;7953;54.302;10.128;2024-03-07T02:32:45;13.17;;;8.57;;
15706;SDS011;7953;54.302;10.128;2024-03-07T02:35:17;17.33;;;9.50;;
15706;SDS011;7953;54.302;10.128;2024-03-07T02:37:44;12.83;;;8.83;;
15706;SDS011;7953;54.302;10.128;2024-03-07T02:40:13;13.80;;;8.90;;
15706;SDS011;7953;54.302;10.128;2024-03-07T02:42:41;13.63;;;9.87;;
15706;SDS011;7953;54.302;10.128;2024-03-07T02:45:08;13.33;;;9.20;;
15706;SDS011;7953;54.302;10.128;2024-03-07T02:47:39;11.67;;;9.83;;
15706;SDS011;7953;54.302;10.128;2024-03-07T02:50:08;15.90;;;10.53;;
15706;SDS011;7953;54.302;10.128;2024-03-07T02:52:35;17.23;;;10.53;;
15706;SDS011;7953;54.302;10.128;2024-03-07T02:55:02;16.10;;;9.50;;
15706;SDS011;7953;54.302;10.128;2024-03-07T02:57:31;18.30;;;9.80;;
15706;SDS011;7953;54.302;10.128;2024-03-07T02:59:58;13.97;;;10.10;;
15706;SDS011;7953;54.302;10.128;2024-03-07T03:02:25;13.37;;;9.47;;
15706;SDS011;7953;54.302;10.128;2024-03-07T03:04:52;16.23;;;10.27;;
15706;SDS011;7953;54.302;10.128;2024-03-07T03:07:19;13.23;;;9.43;;
15706;SDS011;7953;54.302;10.128;2024-03-07T03:09:46;14.87;;;9.30;;
15706;SDS011;7953;54.302;10.128;2024-03-07T03:12:15;15.40;;;9.23;;
15706;SDS011;7953;54.302;10.128;2024-03-07T03:14:44;14.23;;;9.00;;
15706;SDS011;7953;54.302;10.128;2024-03-07T03:17:10;15.03;;;9.43;;
15706;SDS011;7953;54.302;10.128;2024-03-07T03:19:38;12.80;;;8.70;;
15706;SDS011;7953;54.302;10.128;2024-03-07T03:22:06;12.70;;;9.00;;
15706;SDS011;7953;54.302;10.128;2024-03-07T03:24:33;17.17;;;9.40;;
15706;SDS011;7953;54.302;10.128;2024-03-07T03:27:00;14.63;;;9.73;;
15706;SDS011;7953;54.302;10.128;2024-03-07T03:29:27;14.83;;;8.80;;
15706;SDS011;7953;54.302;10.128;2024-03-07T03:31:56;16.70;;;10.17;;
15706;SDS011;7953;54.302;10.128;2024-03-07T03:34:23;13.03;;;10.20;;
15706;SDS011;7953;54.302;10.128;2024-03-07T03:36:51;16.87;;;10.50;;
15706;SDS011;7953;54.302;10.128;2024-03-07T03:39:18;16.43;;;10.03;;
15706;SDS011;7953;54.302;10.128;2024-03-07T03:41:45;14.20;;;9.70;;
15706;SDS011;7953;54.302;10.128;2024-03-07T03:44:12;18.13;;;10.67;;
15706;SDS011;7953;54.302;10.128;2024-03-07T03:46:39;13.50;;;10.10;;
15706;SDS011;7953;54.302;10.128;2024-03-07T03:49:08;14.47;;;10.17;;
15706;SDS011;7953;54.302;10.128;2024-03-07T03:51:35;12.07;;;9.70;;
15706;SDS011;7953;54.302;10.128;2024-03-07T03:54:02;14.27;;;10.63;;
15706;SDS011;7953;54.302;10.128;2024-03-07T03:56:30;13.47;;;9.90;;
15706;SDS011;7953;54.302;10.128;2024-03-07T03:58:57;14.67;;;10.13;;
15706;SDS011;7953;54.302;10.128;2024-03-07T04:01:24;18.77;;;10.40;;
15706;SDS011;7953;54.302;10.128;2024-03-07T04:03:51;19.20;;;11.93;;
15706;SDS011;7953;54.302;10.128;2024-03-07T04:06:20;17.63;;;9.33;;
15706;SDS011;7953;54.302;10.128;2024-03-07T04:08:46;14.50;;;9.77;;
15706;SDS011;7953;54.302;10.128;2024-03-07T04:11:13;10.40;;;8.50;;
15706;SDS011;7953;54.302;10.128;2024-03-07T04:13:40;14.60;;;8.67;;
15706;SDS011;7953;54.302;10.128;2024-03-07T04:16:07;14.57;;;9.33;;
15706;SDS011;7953;54.302;10.128;2024-03-07T04:18:34;11.13;;;9.10;;
15706;SDS011;7953;54.302;10.128;2024-03-07T04:21:01;12.70;;;8.10;;
15706;SDS011;7953;54.302;10.128;2024-03-07T04:23:30;17.67;;;9.03;;
15706;SDS011;7953;54.302;10.128;2024-03-07T04:25:57;11.30;;;8.70;;
15706;SDS011;7953;54.302;10.128;2024-03-07T04:28:24;11.40;;;8.63;;
15706;SDS011;7953;54.302;10.128;2024-03-07T04:30:51;12.63;;;8.97;;
15706;SDS011;7953;54.302;10.128;2024-03-07T04:33:18;17.33;;;8.93;;
15706;SDS011;7953;54.302;10.128;2024-03-07T04:35:45;12.93;;;8.47;;
15706;SDS011;7953;54.302;10.128;2024-03-07T04:38:12;14.60;;;9.80;;
15706;SDS011;7953;54.302;10.128;2024-03-07T04:40:41;10.87;;;8.77;;
15706;SDS011;7953;54.302;10.128;2024-03-07T04:43:08;14.83;;;8.80;;
15706;SDS011;7953;54.302;10.128;2024-03-07T04:45:35;9.93;;;8.07;;
15706;SDS011;7953;54.302;10.128;2024-03-07T04:48:02;10.87;;;7.67;;
15706;SDS011;7953;54.302;10.128;2024-03-07T04:50:31;10.93;;;7.47;;
15706;SDS011;7953;54.302;10.128;2024-03-07T04:52:58;11.73;;;7.87;;
15706;SDS011;7953;54.302;10.128;2024-03-07T04:55:25;13.37;;;8.60;;
15706;SDS011;7953;54.302;10.128;2024-03-07T04:57:53;13.30;;;8.03;;
15706;SDS011;7953;54.302;10.128;2024-03-07T05:00:20;12.17;;;8.93;;
15706;SDS011;7953;54.302;10.128;2024-03-07T05:02:47;9.27;;;7.83;;
15706;SDS011;7953;54.302;10.128;2024-03-07T05:05:15;12.53;;;8.30;;
15706;SDS011;7953;54.302;10.128;2024-03-07T05:07:47;13.67;;;8.80;;
15706;SDS011;7953;54.302;10.128;2024-03-07T05:10:15;14.00;;;8.97;;
15706;SDS011;7953;54.302;10.128;2024-03-07T05:12:42;10.43;;;8.40;;
15706;SDS011;7953;54.302;10.128;2024-03-07T05:15:11;12.93;;;9.10;;
15706;SDS011;7953;54.302;10.128;2024-03-07T05:17:38;13.27;;;8.80;;
15706;SDS011;7953;54.302;10.128;2024-03-07T05:20:08;14.47;;;9.87;;
15706;SDS011;7953;54.302;10.128;2024-03-07T05:22:37;13.13;;;8.47;;
15706;SDS011;7953;54.302;10.128;2024-03-07T05:25:05;14.07;;;9.20;;
15706;SDS011;7953;54.302;10.128;2024-03-07T05:27:32;11.30;;;9.43;;
15706;SDS011;7953;54.302;10.128;2024-03-07T05:30:01;14.50;;;9.23;;
15706;SDS011;7953;54.302;10.128;2024-03-07T05:32:30;18.87;;;9.47;;
15706;SDS011;7953;54.302;10.128;2024-03-07T05:34:59;15.80;;;10.20;;
15706;SDS011;7953;54.302;10.128;2024-03-07T05:37:26;13.87;;;9.30;;
15706;SDS011;7953;54.302;10.128;2024-03-07T05:39:53;15.43;;;9.10;;
15706;SDS011;7953;54.302;10.128;2024-03-07T05:42:20;15.10;;;10.50;;
15706;SDS011;7953;54.302;10.128;2024-03-07T05:44:47;13.10;;;9.80;;
15706;SDS011;7953;54.302;10.128;2024-03-07T05:47:13;12.53;;;9.13;;
15706;SDS011;7953;54.302;10.128;2024-03-07T05:49:42;13.20;;;9.10;;
15706;SDS011;7953;54.302;10.128;2024-03-07T05:52:09;15.67;;;9.00;;
15706;SDS011;7953;54.302;10.128;2024-03-07T05:54:36;14.37;;;9.63;;
15706;SDS011;7953;54.302;10.128;2024-03-07T05:57:03;13.03;;;9.73;;
15706;SDS011;7953;54.302;10.128;2024-03-07T05:59:31;18.30;;;9.77;;
15706;SDS011;7953;54.302;10.128;2024-03-07T06:01:58;12.83;;;8.87;;
15706;SDS011;7953;54.302;10.128;2024-03-07T06:04:25;13.23;;;9.10;;
15706;SDS011;7953;54.302;10.128;2024-03-07T06:06:53;18.83;;;9.73;;
15706;SDS011;7953;54.302;10.128;2024-03-07T06:09:20;10.93;;;8.97;;
15706;SDS011;7953;54.302;10.128;2024-03-07T06:11:48;16.07;;;10.17;;
15706;SDS011;7953;54.302;10.128;2024-03-07T06:14:15;13.47;;;10.00;;
15706;SDS011;7953;54.302;10.128;2024-03-07T06:16:43;15.23;;;9.30;;
15706;SDS011;7953;54.302;10.128;2024-03-07T06:19:10;17.97;;;9.90;;
15706;SDS011;7953;54.302;10.128;2024-03-07T06:21:38;14.03;;;9.67;;
15706;SDS011;7953;54.302;10.128;2024-03-07T06:24:07;12.80;;;10.17;;
15706;SDS011;7953;54.302;10.128;2024-03-07T06:26:36;12.77;;;9.67;;
15706;SDS011;7953;54.302;10.128;2024-03-07T06:29:12;14.67;;;10.40;;
15706;SDS011;7953;54.302;10.128;2024-03-07T06:31:41;15.40;;;9.97;;
15706;SDS011;7953;54.302;10.128;2024-03-07T06:34:08;15.87;;;10.03;;
15706;SDS011;7953;54.302;10.128;2024-03-07T06:36:35;15.50;;;10.57;;
15706;SDS011;7953;54.302;10.128;2024-03-07T06:39:02;14.60;;;10.00;;
15706;SDS011;7953;54.302;10.128;2024-03-07T06:41:31;14.07;;;9.83;;
15706;SDS011;7953;54.302;10.128;2024-03-07T06:43:58;17.50;;;10.33;;
15706;SDS011;7953;54.302;10.128;2024-03-07T06:46:25;14.87;;;9.70;;
15706;SDS011;7953;54.302;10.128;2024-03-07T06:48:52;14.37;;;10.73;;
15706;SDS011;7953;54.302;10.128;2024-03-07T06:51:19;14.93;;;10.37;;
15706;SDS011;7953;54.302;10.128;2024-03-07T06:53:47;14.70;;;10.17;;
15706;SDS011;7953;54.302;10.128;2024-03-07T06:56:15;16.23;;;10.63;;
15706;SDS011;7953;54.302;10.128;2024-03-07T06:58:43;12.40;;;10.30;;
15706;SDS011;7953;54.302;10.128;2024-03-07T07:01:11;15.20;;;10.23;;
15706;SDS011;7953;54.302;10.128;2024-03-07T07:03:40;14.63;;;10.60;;
15706;SDS011;7953;54.302;10.128;2024-03-07T07:06:08;16.83;;;10.60;;
15706;SDS011;7953;54.302;10.128;2024-03-07T07:08:35;15.63;;;10.03;;
15706;SDS011;7953;54.302;10.128;2024-03-07T07:11:02;16.50;;;10.70;;
15706;SDS011;7953;54.302;10.128;2024-03-07T07:13:30;15.33;;;10.20;;
15706;SDS011;7953;54.302;10.128;2024-03-07T07:15:58;16.53;;;10.70;;
15706;SDS011;7953;54.302;10.128;2024-03-07T07:18:26;15.10;;;10.10;;
15706;SDS011;7953;54.302;10.128;2024-03-07T07:20:53;16.20;;;11.67;;
15706;SDS011;7953;54.302;10.128;2024-03-07T07:23:21;20.00;;;11.03;;
15706;SDS011;7953;54.302;10.128;2024-03-07T07:25:48;15.53;;;11.30;;
15706;SDS011;7953;54.302;10.128;2024-03-07T07:28:15;14.93;;;10.90;;
15706;SDS011;7953;54.302;10.128;2024-03-07T07:30:42;15.30;;;10.63;;
15706;SDS011;7953;54.302;10.128;2024-03-07T07:33:10;17.07;;;11.17;;
15706;SDS011;7953;54.302;10.128;2024-03-07T07:35:37;18.00;;;10.57;;
15706;SDS011;7953;54.302;10.128;2024-03-07T07:38:04;17.13;;;10.97;;
15706;SDS011;7953;54.302;10.128;2024-03-07T07:40:32;21.43;;;11.37;;
15706;SDS011;7953;54.302;10.128;2024-03-07T07:43:00;18.50;;;11.97;;
15706;SDS011;7953;54.302;10.128;2024-03-07T07:45:29;15.83;;;11.43;;
15706;SDS011;7953;54.302;10.128;2024-03-07T07:47:57;16.17;;;11.40;;
15706;SDS011;7953;54.302;10.128;2024-03-07T07:50:25;15.43;;;11.60;;
15706;SDS011;7953;54.302;10.128;2024-03-07T07:52:54;15.07;;;12.10;;
15706;SDS011;7953;54.302;10.128;2024-03-07T07:55:22;17.13;;;12.20;;
15706;SDS011;7953;54.302;10.128;2024-03-07T07:57:50;19.53;;;12.27;;
15706;SDS011;7953;54.302;10.128;2024-03-07T08:00:19;18.03;;;13.33;;
15706;SDS011;7953;54.302;10.128;2024-03-07T08:02:50;20.87;;;13.03;;
15706;SDS011;7953;54.302;10.128;2024-03-07T08:05:18;18.43;;;11.80;;
15706;SDS011;7953;54.302;10.128;2024-03-07T08:07:49;16.07;;;11.17;;
15706;SDS011;7953;54.302;10.128;2024-03-07T08:10:17;19.60;;;12.17;;
15706;SDS011;7953;54.302;10.128;2024-03-07T08:12:45;15.67;;;11.17;;
15706;SDS011;7953;54.302;10.128;2024-03-07T08:15:13;19.83;;;12.63;;
15706;SDS011;7953;54.302;10.128;2024-03-07T08:17:41;19.17;;;12.57;;
15706;SDS011;7953;54.302;10.128;2024-03-07T08:20:10;15.27;;;12.00;;
15706;SDS011;7953;54.302;10.128;2024-03-07T08:22:38;19.77;;;12.30;;
15706;SDS011;7953;54.302;10.128;2024-03-07T08:25:08;18.23;;;12.27;;
15706;SDS011;7953;54.302;10.128;2024-03-07T08:27:36;16.37;;;11.53;;
15706;SDS011;7953;54.302;10.128;2024-03-07T08:30:03;16.67;;;12.13;;
15706;SDS011;7953;54.302;10.128;2024-03-07T08:32:32;18.23;;;12.47;;
15706;SDS011;7953;54.302;10.128;2024-03-07T08:35:01;17.83;;;13.20;;
15706;SDS011;7953;54.302;10.128;2024-03-07T08:37:31;17.37;;;12.63;;
15706;SDS011;7953;54.302;10.128;2024-03-07T08:39:59;18.57;;;12.73;;
15706;SDS011;7953;54.302;10.128;2024-03-07T08:42:28;19.53;;;13.20;;
15706;SDS011;7953;54.302;10.128;2024-03-07T08:44:57;20.93;;;12.47;;
15706;SDS011;7953;54.302;10.128;2024-03-07T08:47:24;19.67;;;14.00;;
15706;SDS011;7953;54.302;10.128;2024-03-07T08:49:51;19.50;;;13.70;;
15706;SDS011;7953;54.302;10.128;2024-03-07T08:52:18;19.67;;;13.83;;
15706;SDS011;7953;54.302;10.128;2024-03-07T08:54:45;18.17;;;13.53;;
15706;SDS011;7953;54.302;10.128;2024-03-07T08:57:12;24.77;;;13.67;;
15706;SDS011;7953;54.302;10.128;2024-03-07T08:59:43;22.60;;;13.50;;
15706;SDS011;7953;54.302;10.128;2024-03-07T09:02:10;21.83;;;14.33;;
15706;SDS011;7953;54.302;10.128;2024-03-07T09:04:37;22.60;;;13.77;;
15706;SDS011;7953;54.302;10.128;2024-03-07T09:07:04;23.33;;;14.47;;
15706;SDS011;7953;54.302;10.128;2024-03-07T09:09:31;20.73;;;14.47;;
15706;SDS011;7953;54.302;10.128;2024-03-07T09:11:58;22.20;;;14.37;;
15706;SDS011;7953;54.302;10.128;2024-03-07T09:14:26;20.37;;;13.50;;
15706;SDS011;7953;54.302;10.128;2024-03-07T09:16:54;24.87;;;14.90;;
15706;SDS011;7953;54.302;10.128;2024-03-07T09:19:22;23.50;;;13.27;;
15706;SDS011;7953;54.302;10.128;2024-03-07T09:21:50;18.93;;;13.43;;
15706;SDS011;7953;54.302;10.128;2024-03-07T09:24:18;22.43;;;14.20;;
15706;SDS011;7953;54.302;10.128;2024-03-07T09:26:46;20.77;;;14.37;;
15706;SDS011;7953;54.302;10.128;2024-03-07T09:29:14;19.00;;;12.77;;
15706;SDS011;7953;54.302;10.128;2024-03-07T09:31:42;19.53;;;13.60;;
15706;SDS011;7953;54.302;10.128;2024-03-07T09:34:11;19.70;;;13.50;;
15706;SDS011;7953;54.302;10.128;2024-03-07T09:36:39;24.63;;;13.73;;
15706;SDS011;7953;54.302;10.128;2024-03-07T09:39:07;18.90;;;13.60;;
15706;SDS011;7953;54.302;10.128;2024-03-07T09:41:34;20.50;;;13.93;;
15706;SDS011;7953;54.302;10.128;2024-03-07T09:44:01;21.07;;;14.00;;
15706;SDS011;7953;54.302;10.128;2024-03-07T09:46:29;18.87;;;12.80;;
15706;SDS011;7953;54.302;10.128;2024-03-07T09:48:57;19.83;;;13.57;;
15706;SDS011;7953;54.302;10.128;2024-03-07T09:51:25;21.20;;;13.83;;
15706;SDS011;7953;54.302;10.128;2024-03-07T09:53:54;22.00;;;13.97;;
15706;SDS011;7953;54.302;10.128;2024-03-07T09:56:24;18.50;;;13.50;;
15706;SDS011;7953;54.302;10.128;2024-03-07T09:58:53;15.47;;;12.40;;
15706;SDS011;7953;54.302;10.128;2024-03-07T10:01:25;19.17;;;12.03;;
15706;SDS011;7953;54.302;10.128;2024-03-07T10:03:58;18.47;;;12.27;;
15706;SDS011;7953;54.302;10.128;2024-03-07T10:06:29;18.33;;;12.23;;
15706;SDS011;7953;54.302;10.128;2024-03-07T10:08:56;19.57;;;12.67;;
15706;SDS011;7953;54.302;10.128;2024-03-07T10:11:24;17.77;;;12.27;;
15706;SDS011;7953;54.302;10.128;2024-03-07T10:13:52;16.10;;;11.83;;
15706;SDS011;7953;54.302;10.128;2024-03-07T10:16:20;23.67;;;12.50;;
15706;SDS011;7953;54.302;10.128;2024-03-07T10:18:48;18.80;;;13.63;;
15706;SDS011;7953;54.302;10.128;2024-03-07T10:21:15;19.50;;;11.83;;
15706;SDS011;7953;54.302;10.128;2024-03-07T10:23:47;22.40;;;12.30;;
15706;SDS011;7953;54.302;10.128;2024-03-07T10:26:14;14.40;;;11.60;;
15706;SDS011;7953;54.302;10.128;2024-03-07T10:28:42;19.70;;;12.07;;
15706;SDS011;7953;54.302;10.128;2024-03-07T10:31:09;18.37;;;11.37;;
15706;SDS011;7953;54.302;10.128;2024-03-07T10:33:40;17.07;;;11.40;;
15706;SDS011;7953;54.302;10.128;2024-03-07T10:36:09;16.53;;;11.43;;
15706;SDS011;7953;54.302;10.128;2024-03-07T10:38:38;19.50;;;11.50;;
15706;SDS011;7953;54.302;10.128;2024-03-07T10:41:06;18.10;;;11.30;;
15706;SDS011;7953;54.302;10.128;2024-03-07T10:43:35;15.97;;;10.93;;
15706;SDS011;7953;54.302;10.128;2024-03-07T10:46:06;15.97;;;10.90;;
15706;SDS011;7953;54.302;10.128;2024-03-07T10:48:38;15.37;;;10.53;;
15706;SDS011;7953;54.302;10.128;2024-03-07T10:51:06;14.77;;;11.47;;
15706;SDS011;7953;54.302;10.128;2024-03-07T10:53:42;15.60;;;11.53;;
15706;SDS011;7953;54.302;10.128;2024-03-07T10:56:21;18.80;;;11.43;;
15706;SDS011;7953;54.302;10.128;2024-03-07T10:58:57;19.57;;;12.00;;
15706;SDS011;7953;54.302;10.128;2024-03-07T11:01:30;15.27;;;11.47;;
15706;SDS011;7953;54.302;10.128;2024-03-07T11:03:59;15.53;;;11.87;;
15706;SDS011;7953;54.302;10.128;2024-03-07T11:06:29;17.50;;;12.57;;
15706;SDS011;7953;54.302;10.128;2024-03-07T11:08:58;16.87;;;11.17;;
15706;SDS011;7953;54.302;10.128;2024-03-07T11:11:29;15.73;;;11.67;;
15706;SDS011;7953;54.302;10.128;2024-03-07T11:13:57;17.10;;;10.87;;
15706;SDS011;7953;54.302;10.128;2024-03-07T11:16:24;12.87;;;10.50;;
15706;SDS011;7953;54.302;10.128;2024-03-07T11:21:44;20.50;;;10.73;;
15706;SDS011;7953;54.302;10.128;2024-03-07T11:24:22;12.03;;;9.97;;
15706;SDS011;7953;54.302;10.128;2024-03-07T11:26:52;14.17;;;10.40;;
15706;SDS011;7953;54.302;10.128;2024-03-07T11:32:08;16.07;;;10.20;;
15706;SDS011;7953;54.302;10.128;2024-03-07T11:34:37;20.70;;;11.03;;
15706;SDS011;7953;54.302;10.128;2024-03-07T11:37:06;13.13;;;10.50;;
15706;SDS011;7953;54.302;10.128;2024-03-07T11:39:42;15.10;;;11.47;;
15706;SDS011;7953;54.302;10.128;2024-03-07T11:42:12;16.27;;;11.33;;
15706;SDS011;7953;54.302;10.128;2024-03-07T11:44:46;14.07;;;10.40;;
15706;SDS011;7953;54.302;10.128;2024-03-07T11:47:13;13.13;;;10.17;;
15706;SDS011;7953;54.302;10.128;2024-03-07T11:49:43;10.93;;;9.67;;
15706;SDS011;7953;54.302;10.128;2024-03-07T11:52:13;13.57;;;10.23;;
15706;SDS011;7953;54.302;10.128;2024-03-07T11:54:41;12.10;;;9.60;;
15706;SDS011;7953;54.302;10.128;2024-03-07T11:57:12;14.47;;;9.80;;
15706;SDS011;7953;54.302;10.128;2024-03-07T11:59:41;11.57;;;9.80;;
15706;SDS011;7953;54.302;10.128;2024-03-07T12:02:10;14.50;;;10.47;;
15706;SDS011;7953;54.302;10.128;2024-03-07T12:04:39;14.07;;;9.47;;
15706;SDS011;7953;54.302;10.128;2024-03-07T12:07:06;16.70;;;10.67;;
15706;SDS011;7953;54.302;10.128;2024-03-07T12:09:35;15.40;;;10.13;;
15706;SDS011;7953;54.302;10.128;2024-03-07T12:12:03;14.80;;;10.13;;
15706;SDS011;7953;54.302;10.128;2024-03-07T12:14:32;12.63;;;10.43;;
15706;SDS011;7953;54.302;10.128;2024-03-07T12:16:59;15.40;;;10.53;;
15706;SDS011;7953;54.302;10.128;2024-03-07T12:19:29;16.23;;;10.17;;
15706;SDS011;7953;54.302;10.128;2024-03-07T12:21:57;16.13;;;10.37;;
15706;SDS011;7953;54.302;10.128;2024-03-07T12:24:26;13.37;;;10.13;;
15706;SDS011;7953;54.302;10.128;2024-03-07T12:27:03;13.80;;;10.37;;
15706;SDS011;7953;54.302;10.128;2024-03-07T12:29:32;15.60;;;10.77;;
15706;SDS011;7953;54.302;10.128;2024-03-07T12:31:59;16.53;;;10.97;;
15706;SDS011;7953;54.302;10.128;2024-03-07T12:34:26;18.77;;;11.43;;
15706;SDS011;7953;54.302;10.128;2024-03-07T12:36:55;16.10;;;10.47;;
15706;SDS011;7953;54.302;10.128;2024-03-07T12:39:22;14.53;;;10.43;;
15706;SDS011;7953;54.302;10.128;2024-03-07T12:41:55;13.70;;;9.83;;
15706;SDS011;7953;54.302;10.128;2024-03-07T12:44:22;12.03;;;10.30;;
15706;SDS011;7953;54.302;10.128;2024-03-07T12:46:52;14.63;;;10.30;;
15706;SDS011;7953;54.302;10.128;2024-03-07T12:49:20;14.03;;;11.57;;
15706;SDS011;7953;54.302;10.128;2024-03-07T12:51:52;14.60;;;10.97;;
15706;SDS011;7953;54.302;10.128;2024-03-07T12:54:19;14.30;;;10.30;;
15706;SDS011;7953;54.302;10.128;2024-03-07T12:56:46;18.63;;;11.20;;
15706;SDS011;7953;54.302;10.128;2024-03-07T12:59:15;13.67;;;11.23;;
15706;SDS011;7953;54.302;10.128;2024-03-07T13:01:41;15.90;;;10.47;;
15706;SDS011;7953;54.302;10.128;2024-03-07T13:04:11;14.83;;;11.07;;
15706;SDS011;7953;54.302;10.128;2024-03-07T13:06:38;14.50;;;11.00;;
15706;SDS011;7953;54.302;10.128;2024-03-07T13:09:08;14.43;;;10.37;;
15706;SDS011;7953;54.302;10.128;2024-03-07T13:11:35;14.60;;;10.73;;
15706;SDS011;7953;54.302;10.128;2024-03-07T13:14:06;14.53;;;10.80;;
15706;SDS011;7953;54.302;10.128;2024-03-07T13:16:33;15.43;;;11.07;;
15706;SDS011;7953;54.302;10.128;2024-03-07T13:19:00;16.33;;;11.63;;
15706;SDS011;7953;54.302;10.128;2024-03-07T13:21:30;14.63;;;10.97;;
15706;SDS011;7953;54.302;10.128;2024-03-07T13:24:00;13.90;;;11.60;;
15706;SDS011;7953;54.302;10.128;2024-03-07T13:26:27;14.07;;;11.83;;
15706;SDS011;7953;54.302;10.128;2024-03-07T13:28:55;15.87;;;11.00;;
15706;SDS011;7953;54.302;10.128;2024-03-07T13:31:25;17.20;;;12.23;;
15706;SDS011;7953;54.302;10.128;2024-03-07T13:33:53;14.70;;;10.63;;
15706;SDS011;7953;54.302;10.128;2024-03-07T13:36:20;19.40;;;11.50;;
15706;SDS011;7953;54.302;10.128;2024-03-07T13:38:51;15.40;;;11.17;;
15706;SDS011;7953;54.302;10.128;2024-03-07T13:41:19;20.63;;;11.67;;
15706;SDS011;7953;54.302;10.128;2024-03-07T13:43:46;17.33;;;11.80;;
15706;SDS011;7953;54.302;10.128;2024-03-07T13:46:13;16.57;;;11.43;;
15706;SDS011;7953;54.302;10.128;2024-03-07T13:48:43;19.60;;;11.77;;
15706;SDS011;7953;54.302;10.128;2024-03-07T13:51:10;14.17;;;10.93;;
15706;SDS011;7953;54.302;10.128;2024-03-07T13:53:40;15.93;;;12.03;;
15706;SDS011;7953;54.302;10.128;2024-03-07T13:59:21;19.93;;;12.10;;
15706;SDS011;7953;54.302;10.128;2024-03-07T14:02:29;14.10;;;11.33;;
15706;SDS011;7953;54.302;10.128;2024-03-07T14:05:27;15.57;;;10.30;;
15706;SDS011;7953;54.302;10.128;2024-03-07T14:08:19;19.73;;;12.00;;
15706;SDS011;7953;54.302;10.128;2024-03-07T14:11:14;14.33;;;11.43;;
15706;SDS011;7953;54.302;10.128;2024-03-07T14:23:24;13.47;;;10.87;;
15706;SDS011;7953;54.302;10.128;2024-03-07T14:26:28;16.87;;;11.30;;
15706;SDS011;7953;54.302;10.128;2024-03-07T14:29:12;16.20;;;11.33;;
15706;SDS011;7953;54.302;10.128;2024-03-07T14:31:49;14.07;;;11.23;;
15706;SDS011;7953;54.302;10.128;2024-03-07T14:34:19;17.80;;;12.63;;
15706;SDS011;7953;54.302;10.128;2024-03-07T14:36:56;17.17;;;12.13;;
15706;SDS011;7953;54.302;10.128;2024-03-07T14:39:28;18.80;;;12.10;;
15706;SDS011;7953;54.302;10.128;2024-03-07T14:42:01;18.77;;;12.10;;
15706;SDS011;7953;54.302;10.128;2024-03-07T14:44:34;20.50;;;12.30;;
15706;SDS011;7953;54.302;10.128;2024-03-07T14:47:04;15.60;;;11.63;;
15706;SDS011;7953;54.302;10.128;2024-03-07T14:49:35;16.20;;;12.40;;
15706;SDS011;7953;54.302;10.128;2024-03-07T14:52:05;16.83;;;12.80;;